KOMK

Omak Airport

Omak, Washington, USA
METAR KOMK 181253Z AUTO 19009KT 10SM -RA OVC019 06/05 A2965 RMK AO2 SLP049 P0005 T00610050
Observed Flight Rules
Dec-18 @ 12:53 UTC (14 minutes ago) Marginal Visual Flight Rules
Wind Visibility Clouds Conditions
190° at 9 knots 10 miles
  • Overcast at 1,900' AGL
  • Light Rain
Temperatures Readings Precipitation
Current 6°C / 43°F
Dewpoint 5°C / 41°F
Humidity 93%
Altimeter 29.65" Hg
Pressure 1004.9 hPa
Elevation 395
Current Rain 0.05
METAR KOMK 181253Z AUTO 19009KT 10SM -RA OVC019 06/05 A2965 RMK AO2 SLP049 P0005 T00610050
Observed Flight Rules
Dec-18 @ 12:53 UTC
(14 minutes ago)
MVFR
Wind Visibility
190° at 9 knots 10 miles
Clouds
  • Overcast at 1,900' AGL
Conditions
  • Light Rain
Temperature Dewpoint
6°C / 43°F 5°C / 41°F
Humidity Altimeter Pressure
93% 29.65" Hg 1004.9 hPa
Current Rain
0.05